Time;durP1;ratioP1;P1;durP2;ratioP2;P2;SDS_P1;SDS_P2;PMS_P1;PMS_P2;Temp;Humidity;BMP_temperature;BMP_pressure;BME280_temperature;BME280_humidity;BME280_pressure;Samples;Min_cycle;Max_cycle;Signal;HPM_P1;HPM_P2
2021/10/10 00:01:47;;;;;;;14.57;10.45;;;14.20;90.70;;;;;;5012512;28;20114;-67
2021/10/10 00:04:12;;;;;;;13.80;9.98;;;14.10;90.60;;;;;;5013976;28;20022;-67
2021/10/10 00:06:38;;;;;;;15.90;10.13;;;14.10;90.60;;;;;;5013127;28;20026;-67
2021/10/10 00:09:04;;;;;;;15.10;10.48;;;14.10;90.70;;;;;;5013629;28;20064;-67
2021/10/10 00:11:30;;;;;;;16.08;10.07;;;14.10;90.60;;;;;;5013128;28;20076;-67
2021/10/10 00:13:55;;;;;;;13.18;9.77;;;14.10;90.70;;;;;;5013671;28;20033;-67
2021/10/10 00:16:21;;;;;;;13.75;9.93;;;14.10;90.60;;;;;;5013352;28;20033;-66
2021/10/10 00:18:47;;;;;;;14.10;9.85;;;14.10;90.70;;;;;;5013373;28;20088;-67
2021/10/10 00:21:14;;;;;;;13.80;10.18;;;14.10;90.70;;;;;;5011926;28;20486;-67
2021/10/10 00:23:39;;;;;;;17.27;10.80;;;14.10;90.60;;;;;;5013607;28;20100;-67
2021/10/10 00:26:05;;;;;;;14.02;10.57;;;14.10;90.50;;;;;;5012887;28;20116;-67
2021/10/10 00:28:30;;;;;;;14.65;10.07;;;14.10;90.50;;;;;;5012854;28;20026;-67
2021/10/10 00:30:57;;;;;;;15.75;10.27;;;14.00;90.50;;;;;;5013255;28;20121;-66
2021/10/10 00:33:23;;;;;;;12.85;9.52;;;14.00;90.50;;;;;;5012725;28;20432;-67
2021/10/10 00:35:49;;;;;;;13.82;10.35;;;14.10;90.40;;;;;;5011730;28;20034;-67
2021/10/10 00:38:15;;;;;;;16.23;10.57;;;14.00;90.40;;;;;;5011716;28;20481;-66
2021/10/10 00:40:41;;;;;;;18.95;10.40;;;14.00;90.50;;;;;;5012800;28;20030;-66
2021/10/10 00:43:06;;;;;;;12.50;9.93;;;14.00;90.50;;;;;;5011856;28;20026;-66
2021/10/10 00:45:33;;;;;;;13.70;9.98;;;14.00;90.50;;;;;;5012983;28;20505;-66
2021/10/10 00:47:59;;;;;;;15.02;10.10;;;14.00;90.50;;;;;;5012845;28;20470;-66
2021/10/10 00:50:25;;;;;;;13.50;9.93;;;14.00;90.80;;;;;;5012740;28;20050;-66
2021/10/10 00:52:52;;;;;;;13.15;9.05;;;14.00;90.40;;;;;;5011575;28;20026;-66
2021/10/10 00:55:21;;;;;;;14.00;9.77;;;14.00;90.40;;;;;;5011575;28;20493;-66
2021/10/10 00:57:50;;;;;;;14.93;9.60;;;14.00;90.40;;;;;;5012788;28;20038;-66
2021/10/10 01:00:17;;;;;;;14.15;10.13;;;14.00;90.40;;;;;;5012353;28;20040;-66
2021/10/10 01:02:43;;;;;;;14.23;9.88;;;14.00;90.40;;;;;;5012731;28;20026;-66
2021/10/10 01:05:11;;;;;;;13.95;9.85;;;14.00;90.40;;;;;;5010897;28;20072;-66
2021/10/10 01:07:36;;;;;;;13.80;9.13;;;14.00;90.30;;;;;;5012021;28;20105;-67
2021/10/10 01:10:07;;;;;;;13.65;9.45;;;14.00;90.30;;;;;;5012013;28;20049;-66
2021/10/10 01:12:34;;;;;;;12.90;9.47;;;14.00;90.30;;;;;;5011371;28;20052;-67
2021/10/10 01:15:02;;;;;;;14.88;9.68;;;14.00;90.30;;;;;;5012206;28;20030;-66
2021/10/10 01:17:28;;;;;;;14.60;9.88;;;14.00;90.20;;;;;;5012568;28;20088;-66
2021/10/10 01:19:54;;;;;;;13.10;8.95;;;14.00;90.20;;;;;;5011966;28;20108;-66
2021/10/10 01:22:20;;;;;;;13.18;9.50;;;14.00;90.20;;;;;;5012170;28;20030;-66
2021/10/10 01:24:46;;;;;;;14.10;9.48;;;14.00;90.20;;;;;;5012425;28;20101;-66
2021/10/10 01:27:13;;;;;;;12.63;9.00;;;14.00;90.20;;;;;;5012196;28;20092;-66
2021/10/10 01:29:38;;;;;;;12.70;9.32;;;13.90;90.20;;;;;;5012028;28;20029;-65
2021/10/10 01:32:04;;;;;;;13.80;9.57;;;14.00;90.20;;;;;;5011740;28;20025;-66
2021/10/10 01:34:30;;;;;;;12.70;9.07;;;13.90;90.10;;;;;;5012483;28;20030;-66
2021/10/10 01:36:56;;;;;;;12.98;9.20;;;13.90;90.10;;;;;;5011912;28;20030;-67
2021/10/10 01:39:21;;;;;;;12.75;8.95;;;14.00;90.10;;;;;;5011711;28;20026;-67
2021/10/10 01:41:47;;;;;;;12.65;9.10;;;13.90;90.10;;;;;;5010444;28;20033;-66
2021/10/10 01:44:14;;;;;;;12.43;8.55;;;13.90;90.10;;;;;;5010902;28;20022;-66
2021/10/10 01:46:40;;;;;;;12.10;8.55;;;13.90;90.10;;;;;;5010661;28;20029;-66
2021/10/10 01:49:06;;;;;;;11.88;8.35;;;13.90;90.00;;;;;;5010971;28;20026;-66
2021/10/10 01:51:31;;;;;;;12.25;8.52;;;13.90;90.30;;;;;;5012050;28;20030;-66
2021/10/10 01:54:00;;;;;;;14.68;9.00;;;13.90;90.00;;;;;;5010691;28;20021;-66
2021/10/10 01:56:26;;;;;;;13.30;8.57;;;13.90;90.00;;;;;;5011850;28;20033;-65
2021/10/10 01:58:52;;;;;;;12.85;9.10;;;13.90;90.00;;;;;;5011256;28;20033;-67
2021/10/10 02:01:17;;;;;;;13.25;8.65;;;13.90;90.00;;;;;;5011821;28;20026;-67
2021/10/10 02:03:43;;;;;;;13.13;9.35;;;13.90;90.00;;;;;;5011749;28;20033;-67
2021/10/10 02:06:08;;;;;;;13.93;9.55;;;13.90;90.10;;;;;;5011643;28;20133;-66
2021/10/10 02:08:34;;;;;;;13.23;9.05;;;13.90;90.00;;;;;;5011466;28;20030;-67
2021/10/10 02:10:59;;;;;;;12.10;8.52;;;13.90;90.00;;;;;;5000531;28;20061;-67
2021/10/10 02:13:25;;;;;;;13.65;8.35;;;13.90;90.00;;;;;;5011570;28;20038;-66
2021/10/10 02:15:50;;;;;;;11.50;8.70;;;13.80;90.00;;;;;;5011455;28;20117;-66
2021/10/10 02:18:16;;;;;;;12.23;8.55;;;13.90;90.00;;;;;;5009886;28;20030;-66
2021/10/10 02:23:17;;;;;;;12.18;8.57;;;13.90;90.00;;;;;;5065812;23;20058;-67
2021/10/10 02:25:43;;;;;;;12.35;8.13;;;13.90;90.00;;;;;;4990325;28;20032;-67
2021/10/10 02:28:08;;;;;;;11.88;8.60;;;13.90;90.00;;;;;;5007735;28;20106;-68
2021/10/10 02:30:34;;;;;;;12.40;8.57;;;13.90;90.00;;;;;;5010760;28;20041;-67
2021/10/10 02:32:59;;;;;;;12.23;8.25;;;13.80;89.80;;;;;;5011294;28;20266;-67
2021/10/10 02:35:25;;;;;;;12.52;8.55;;;13.90;89.90;;;;;;5011501;28;20025;-67
2021/10/10 02:37:50;;;;;;;11.38;8.27;;;13.80;89.80;;;;;;5011166;28;20057;-68
2021/10/10 02:40:16;;;;;;;14.35;9.15;;;13.80;89.80;;;;;;5011192;28;20038;-67
2021/10/10 02:42:42;;;;;;;12.05;8.70;;;13.80;89.90;;;;;;5011122;28;20507;-67
2021/10/10 02:45:08;;;;;;;12.30;8.45;;;13.80;89.80;;;;;;4993800;28;20033;-67
2021/10/10 02:47:34;;;;;;;12.90;8.27;;;13.80;89.60;;;;;;5011055;28;20480;-66
2021/10/10 02:49:59;;;;;;;12.40;8.25;;;13.80;89.70;;;;;;4995738;28;20046;-67
2021/10/10 02:52:25;;;;;;;13.02;9.23;;;13.80;89.70;;;;;;4993277;28;20072;-68
2021/10/10 02:54:51;;;;;;;11.13;8.50;;;13.80;89.70;;;;;;5011200;28;20445;-67
2021/10/10 02:57:18;;;;;;;13.30;8.50;;;13.80;89.60;;;;;;5010039;28;20045;-67
2021/10/10 02:59:44;;;;;;;18.40;8.77;;;13.80;89.60;;;;;;5010741;28;20520;-67
2021/10/10 03:02:09;;;;;;;15.90;8.10;;;13.80;89.50;;;;;;5014996;28;20030;-67
2021/10/10 03:04:35;;;;;;;18.80;8.60;;;13.80;89.60;;;;;;4997075;28;20370;-67
2021/10/10 03:07:00;;;;;;;23.33;9.23;;;13.80;89.60;;;;;;5014724;28;20620;-68
2021/10/10 03:09:26;;;;;;;14.65;9.20;;;13.80;89.50;;;;;;5014501;28;20036;-68
2021/10/10 03:11:52;;;;;;;14.07;8.63;;;13.80;89.50;;;;;;5014634;28;20026;-67
2021/10/10 03:14:17;;;;;;;16.00;8.90;;;13.80;89.60;;;;;;5014798;28;20393;-67
2021/10/10 03:16:43;;;;;;;13.50;8.57;;;13.80;89.60;;;;;;5014795;28;20052;-68
2021/10/10 03:19:08;;;;;;;13.52;8.65;;;13.80;89.50;;;;;;5014353;28;20500;-69
2021/10/10 03:21:34;;;;;;;15.88;9.30;;;13.70;89.50;;;;;;5013645;28;20034;-67
2021/10/10 03:24:00;;;;;;;14.40;9.10;;;13.80;89.50;;;;;;5014283;28;20665;-67
2021/10/10 03:26:25;;;;;;;13.30;8.85;;;13.70;89.40;;;;;;5014347;28;20018;-67
2021/10/10 03:28:51;;;;;;;12.45;8.35;;;13.70;89.30;;;;;;5013453;28;20044;-68
2021/10/10 03:31:16;;;;;;;13.38;8.70;;;13.80;89.50;;;;;;4995203;28;20033;-68
2021/10/10 03:33:42;;;;;;;13.38;9.55;;;13.70;89.30;;;;;;5013814;28;20493;-68
2021/10/10 03:36:10;;;;;;;13.02;8.27;;;13.70;89.30;;;;;;5014600;28;20061;-67
2021/10/10 03:38:36;;;;;;;12.95;9.20;;;13.70;89.30;;;;;;4996510;28;20026;-67
2021/10/10 03:41:02;;;;;;;11.50;9.10;;;13.70;89.20;;;;;;5014037;28;20037;-68
2021/10/10 03:43:28;;;;;;;13.32;9.25;;;13.70;89.30;;;;;;5013942;28;20393;-68
2021/10/10 03:45:53;;;;;;;12.35;8.38;;;13.70;89.30;;;;;;5014401;28;20026;-66
2021/10/10 03:48:19;;;;;;;12.30;8.80;;;13.70;89.30;;;;;;5013853;28;20022;-68
2021/10/10 03:50:44;;;;;;;12.75;8.52;;;13.70;89.20;;;;;;5029063;28;20033;-67
2021/10/10 03:53:10;;;;;;;14.07;9.10;;;13.70;89.10;;;;;;5012617;28;20048;-67
2021/10/10 03:55:36;;;;;;;12.38;9.00;;;13.70;89.20;;;;;;5014230;28;20062;-67
2021/10/10 03:58:03;;;;;;;12.73;8.82;;;13.70;89.30;;;;;;5013364;28;20037;-68
2021/10/10 04:00:31;;;;;;;12.18;8.73;;;13.70;89.30;;;;;;4996068;28;20030;-67
2021/10/10 04:02:58;;;;;;;13.20;9.30;;;13.70;89.30;;;;;;5029089;28;20018;-68
2021/10/10 04:07:59;;;;;;;11.90;8.43;;;13.70;89.30;;;;;;5014097;28;20026;-68
2021/10/10 04:10:25;;;;;;;11.18;8.57;;;13.60;89.20;;;;;;5013391;28;20025;-67
2021/10/10 04:12:51;;;;;;;13.00;9.07;;;13.70;89.30;;;;;;5012902;28;20122;-67
2021/10/10 04:15:17;;;;;;;14.70;9.40;;;13.70;89.30;;;;;;5012678;28;20100;-67
2021/10/10 04:17:44;;;;;;;13.48;9.45;;;13.60;89.30;;;;;;5014227;28;20125;-67
2021/10/10 04:20:12;;;;;;;12.32;8.48;;;13.70;89.20;;;;;;5012631;28;20029;-67
2021/10/10 04:22:38;;;;;;;11.88;8.27;;;13.70;89.30;;;;;;4995679;28;20029;-67
2021/10/10 04:25:05;;;;;;;12.82;9.25;;;13.70;89.20;;;;;;4995582;28;20180;-68
2021/10/10 04:27:33;;;;;;;13.27;8.95;;;13.60;89.30;;;;;;5013164;28;20033;-67
2021/10/10 04:29:58;;;;;;;11.45;8.02;;;13.60;89.20;;;;;;4995623;28;20026;-68
2021/10/10 04:32:24;;;;;;;12.48;8.95;;;13.70;89.40;;;;;;5012694;28;20037;-67
2021/10/10 04:34:49;;;;;;;13.48;9.30;;;13.60;89.20;;;;;;5013452;28;20037;-67
2021/10/10 04:37:15;;;;;;;14.07;8.98;;;13.60;89.20;;;;;;5013313;28;20080;-67
2021/10/10 04:39:41;;;;;;;13.68;9.20;;;13.60;89.20;;;;;;5013012;28;20034;-66
2021/10/10 04:42:06;;;;;;;11.80;8.68;;;13.60;89.60;;;;;;4994298;28;20113;-68
2021/10/10 04:44:32;;;;;;;12.02;8.80;;;13.60;89.20;;;;;;5007835;28;20091;-67
2021/10/10 04:46:58;;;;;;;11.57;8.65;;;13.60;89.20;;;;;;5012812;28;20029;-68
2021/10/10 04:49:23;;;;;;;13.85;9.38;;;13.60;89.10;;;;;;5012878;28;20018;-67
2021/10/10 04:51:49;;;;;;;11.90;8.70;;;13.60;89.10;;;;;;5012670;28;20029;-68
2021/10/10 04:54:14;;;;;;;13.38;8.48;;;13.60;89.00;;;;;;5013002;28;20425;-67
2021/10/10 04:56:40;;;;;;;13.38;8.98;;;13.60;89.10;;;;;;5012872;28;20038;-67
2021/10/10 04:59:06;;;;;;;10.75;8.48;;;13.60;89.50;;;;;;5010625;28;20038;-67
2021/10/10 05:01:32;;;;;;;12.07;9.05;;;13.60;89.10;;;;;;5012201;28;20105;-66
2021/10/10 05:03:57;;;;;;;13.30;9.10;;;13.60;89.00;;;;;;5012737;28;20022;-67
2021/10/10 05:06:23;;;;;;;12.55;8.40;;;13.60;89.00;;;;;;5012337;28;20084;-67
2021/10/10 05:08:49;;;;;;;11.80;8.98;;;13.60;88.90;;;;;;5027542;28;20026;-67
2021/10/10 05:11:14;;;;;;;12.07;8.77;;;13.60;88.90;;;;;;5012473;28;20038;-67
2021/10/10 05:13:40;;;;;;;11.88;8.82;;;13.60;88.90;;;;;;5012582;28;20041;-68
2021/10/10 05:16:05;;;;;;;13.20;8.20;;;13.60;88.80;;;;;;5012616;28;20025;-67
2021/10/10 05:18:31;;;;;;;11.32;8.48;;;13.60;88.80;;;;;;5012237;28;20041;-67
2021/10/10 05:20:57;;;;;;;11.63;8.80;;;13.60;88.80;;;;;;5012422;28;20062;-67
2021/10/10 05:23:22;;;;;;;12.55;9.02;;;13.60;88.80;;;;;;5011908;28;20029;-66
2021/10/10 05:25:48;;;;;;;11.93;8.85;;;13.60;88.80;;;;;;5012029;28;20029;-67
2021/10/10 05:28:13;;;;;;;12.25;8.50;;;13.50;88.80;;;;;;4994472;28;20061;-67
2021/10/10 05:30:39;;;;;;;14.18;9.48;;;13.60;88.70;;;;;;5010183;28;20485;-67
2021/10/10 05:33:04;;;;;;;13.27;9.07;;;13.50;88.70;;;;;;5011876;28;20418;-67
2021/10/10 05:35:30;;;;;;;12.70;9.13;;;13.50;88.60;;;;;;4999391;28;20033;-66
2021/10/10 05:37:55;;;;;;;12.77;9.20;;;13.50;88.50;;;;;;5011795;28;20022;-67
2021/10/10 05:40:21;;;;;;;13.30;9.27;;;13.50;88.50;;;;;;5007122;28;20029;-67
2021/10/10 05:42:47;;;;;;;12.68;8.90;;;13.50;88.50;;;;;;5011167;28;20041;-67
2021/10/10 05:45:12;;;;;;;12.75;9.15;;;13.50;88.50;;;;;;5010651;28;20026;-68
2021/10/10 05:47:38;;;;;;;12.00;8.32;;;13.50;88.40;;;;;;5010377;28;20500;-67
2021/10/10 05:50:05;;;;;;;12.63;9.02;;;13.50;88.50;;;;;;4993235;28;20093;-68
2021/10/10 05:52:31;;;;;;;12.35;8.80;;;13.50;88.60;;;;;;5011120;28;20030;-67
2021/10/10 05:54:56;;;;;;;20.45;9.50;;;13.50;88.50;;;;;;5011836;28;20022;-67
2021/10/10 05:57:28;;;;;;;14.55;8.32;;;13.50;88.50;;;;;;5027119;28;20030;-68
2021/10/10 06:00:01;;;;;;;12.38;8.38;;;13.50;88.20;;;;;;5011656;28;20429;-67
2021/10/10 06:02:27;;;;;;;13.23;9.27;;;13.50;88.20;;;;;;5011793;28;20022;-67
2021/10/10 06:04:53;;;;;;;12.38;8.57;;;13.50;88.30;;;;;;4994308;28;20030;-66
2021/10/10 06:07:18;;;;;;;13.23;8.82;;;13.50;88.30;;;;;;5011851;28;20393;-67
2021/10/10 06:09:44;;;;;;;13.73;8.82;;;13.50;88.40;;;;;;5011600;28;20022;-66
2021/10/10 06:12:09;;;;;;;13.20;9.18;;;13.50;88.30;;;;;;5008987;28;20485;-67
2021/10/10 06:14:35;;;;;;;11.95;8.52;;;13.50;88.30;;;;;;5011898;28;20072;-66
2021/10/10 06:17:00;;;;;;;12.45;8.63;;;13.50;88.30;;;;;;5011784;28;20045;-67
2021/10/10 06:19:26;;;;;;;12.82;8.70;;;13.50;88.40;;;;;;5010650;28;20025;-66
2021/10/10 06:21:51;;;;;;;14.50;8.95;;;13.50;88.30;;;;;;5018864;28;20035;-66
2021/10/10 06:24:17;;;;;;;12.65;8.80;;;13.50;88.30;;;;;;5031769;28;20151;-68
2021/10/10 06:26:43;;;;;;;13.20;8.88;;;13.50;88.30;;;;;;5017250;28;20030;-68
2021/10/10 06:29:08;;;;;;;13.15;9.00;;;13.50;88.30;;;;;;4994007;28;20026;-67
2021/10/10 06:31:34;;;;;;;15.27;9.18;;;13.50;88.40;;;;;;5010884;28;20030;-67
2021/10/10 06:33:59;;;;;;;12.60;8.40;;;13.50;88.30;;;;;;5016478;28;20552;-68
2021/10/10 06:36:25;;;;;;;14.38;9.32;;;13.50;88.40;;;;;;5012245;28;20036;-67
2021/10/10 06:38:50;;;;;;;11.95;9.02;;;13.50;88.40;;;;;;5026706;28;20121;-67
2021/10/10 06:41:16;;;;;;;13.02;9.02;;;13.50;88.40;;;;;;5025792;28;20034;-69
2021/10/10 06:43:42;;;;;;;12.10;8.68;;;13.50;88.30;;;;;;5022749;28;20501;-68
2021/10/10 06:46:07;;;;;;;12.73;8.90;;;13.50;88.40;;;;;;5022439;28;20021;-68
2021/10/10 06:48:33;;;;;;;12.52;8.77;;;13.50;88.40;;;;;;5034821;28;20022;-67
2021/10/10 06:50:58;;;;;;;14.07;9.27;;;13.50;88.30;;;;;;5020979;28;20413;-67
2021/10/10 06:53:24;;;;;;;13.18;8.55;;;13.50;88.30;;;;;;5015188;28;20091;-67
2021/10/10 06:55:49;;;;;;;13.43;9.15;;;13.50;88.40;;;;;;5014319;28;20036;-68
2021/10/10 06:58:16;;;;;;;14.25;9.85;;;13.50;88.40;;;;;;5013276;28;20026;-68
2021/10/10 07:00:42;;;;;;;14.65;9.70;;;13.50;88.70;;;;;;5012996;28;20060;-68
2021/10/10 07:03:08;;;;;;;59.67;12.65;;;13.50;88.70;;;;;;5017548;28;20029;-68
2021/10/10 07:05:34;;;;;;;46.03;11.55;;;13.50;87.80;;;;;;5000747;28;20026;-67
2021/10/10 07:07:59;;;;;;;27.90;10.40;;;13.50;88.30;;;;;;5016604;28;20021;-68
2021/10/10 07:10:25;;;;;;;14.82;9.43;;;13.40;88.40;;;;;;5032640;28;20025;-68
2021/10/10 07:12:50;;;;;;;15.27;9.80;;;13.40;88.60;;;;;;5026268;28;20246;-68
2021/10/10 07:15:16;;;;;;;15.98;9.38;;;13.40;88.50;;;;;;5014127;28;20018;-68
2021/10/10 07:17:41;;;;;;;16.00;9.52;;;13.40;88.50;;;;;;4996868;28;20042;-67
2021/10/10 07:25:05;;;;;;;44.58;12.35;;;13.40;88.40;;;;;;5014780;28;20022;-67
2021/10/10 07:27:35;;;;;;;15.70;9.43;;;13.50;88.30;;;;;;5014674;28;20033;-67
2021/10/10 07:30:04;;;;;;;16.63;9.15;;;13.50;88.70;;;;;;5013291;28;20022;-67
2021/10/10 07:32:30;;;;;;;13.18;8.85;;;13.50;88.70;;;;;;5013872;28;20029;-67
2021/10/10 07:34:56;;;;;;;14.40;9.02;;;13.50;88.60;;;;;;4996804;28;20452;-67
2021/10/10 07:37:21;;;;;;;14.52;9.55;;;13.50;88.60;;;;;;5009614;28;20042;-67
2021/10/10 07:39:47;;;;;;;15.27;9.25;;;13.50;88.80;;;;;;5012401;28;20041;-67
2021/10/10 07:42:13;;;;;;;15.52;8.90;;;13.50;88.80;;;;;;5012019;28;20080;-68
2021/10/10 07:44:44;;;;;;;16.27;9.50;;;13.50;88.90;;;;;;5011747;28;20104;-67
2021/10/10 07:47:16;;;;;;;15.00;9.50;;;13.50;88.80;;;;;;5012643;28;20050;-67
2021/10/10 07:49:43;;;;;;;13.30;8.75;;;13.50;88.80;;;;;;4990102;28;20036;-66
2021/10/10 07:52:09;;;;;;;15.13;9.55;;;13.50;88.80;;;;;;5013817;28;20092;-67
2021/10/10 07:54:34;;;;;;;16.10;10.07;;;13.50;89.00;;;;;;5014341;28;20038;-66
2021/10/10 07:57:00;;;;;;;14.75;9.95;;;13.50;88.90;;;;;;4996409;28;20445;-67
2021/10/10 07:59:26;;;;;;;13.02;9.60;;;13.50;88.90;;;;;;4995543;28;20034;-67
2021/10/10 08:01:52;;;;;;;14.20;9.65;;;13.50;89.30;;;;;;4995859;28;20032;-68
2021/10/10 08:04:17;;;;;;;12.80;9.60;;;13.60;89.20;;;;;;5029126;28;20018;-68
2021/10/10 08:06:43;;;;;;;14.75;9.73;;;13.60;89.30;;;;;;5013543;28;20072;-66
2021/10/10 08:09:08;;;;;;;12.80;8.95;;;13.60;89.30;;;;;;5013844;28;20034;-66
2021/10/10 08:11:34;;;;;;;13.65;9.38;;;13.60;89.80;;;;;;5011089;28;20025;-67
2021/10/10 08:13:59;;;;;;;14.68;10.02;;;13.60;89.90;;;;;;5013762;28;20026;-67
2021/10/10 08:16:25;;;;;;;13.75;9.40;;;13.60;89.80;;;;;;5016425;28;20026;-67
2021/10/10 08:18:50;;;;;;;15.48;10.10;;;13.60;90.00;;;;;;5031412;28;20109;-67
2021/10/10 08:21:16;;;;;;;14.48;9.90;;;13.60;89.70;;;;;;5015315;28;20061;-66
2021/10/10 08:23:43;;;;;;;14.55;9.90;;;13.60;89.50;;;;;;4999661;28;20685;-67
2021/10/10 08:26:09;;;;;;;13.82;9.68;;;13.60;89.70;;;;;;5013320;28;20018;-67
2021/10/10 08:28:34;;;;;;;12.13;9.38;;;13.60;90.00;;;;;;5012763;28;20088;-68
2021/10/10 08:31:00;;;;;;;13.23;9.57;;;13.60;89.90;;;;;;5013305;28;20540;-67
2021/10/10 08:33:28;;;;;;;14.32;9.70;;;13.60;89.90;;;;;;5072675;22;20346;-70
2021/10/10 08:35:54;;;;;;;14.18;9.57;;;13.60;89.90;;;;;;5032496;28;20029;-70
2021/10/10 08:38:19;;;;;;;13.23;9.43;;;13.60;90.00;;;;;;5030953;28;20439;-70
2021/10/10 08:40:47;;;;;;;11.88;9.50;;;13.70;90.20;;;;;;5033048;28;20072;-69
2021/10/10 08:43:17;;;;;;;12.77;9.38;;;13.60;90.20;;;;;;5032918;28;20443;-70
2021/10/10 08:45:45;;;;;;;14.50;10.13;;;13.70;90.30;;;;;;5033227;28;20032;-69
2021/10/10 08:48:10;;;;;;;13.18;9.48;;;13.60;90.60;;;;;;5032965;28;20021;-70
2021/10/10 08:50:37;;;;;;;13.45;10.02;;;13.70;91.00;;;;;;5032831;28;20039;-70
2021/10/10 08:53:03;;;;;;;13.55;9.15;;;13.70;90.40;;;;;;5032816;28;20034;-69
2021/10/10 08:55:32;;;;;;;12.63;9.35;;;13.70;90.20;;;;;;5032927;28;20057;-70
2021/10/10 08:57:58;;;;;;;14.27;9.32;;;13.70;90.20;;;;;;5032555;28;20018;-70
2021/10/10 09:00:33;;;;;;;11.68;9.02;;;13.70;90.20;;;;;;5032490;28;20026;-69
2021/10/10 09:03:00;;;;;;;13.40;9.63;;;13.70;90.20;;;;;;5032761;28;20017;-70
2021/10/10 09:05:29;;;;;;;14.60;10.20;;;13.70;90.30;;;;;;5032885;28;20017;-70
2021/10/10 09:07:55;;;;;;;14.38;9.55;;;13.70;90.10;;;;;;5032558;28;20018;-70
2021/10/10 09:10:29;;;;;;;15.05;9.98;;;13.70;90.20;;;;;;5032304;28;20021;-70
2021/10/10 09:13:05;;;;;;;13.00;10.20;;;13.70;90.20;;;;;;5032485;28;20021;-70
2021/10/10 09:15:31;;;;;;;13.80;9.70;;;13.70;90.30;;;;;;5032596;28;20029;-69
2021/10/10 09:18:00;;;;;;;14.60;10.07;;;13.60;90.20;;;;;;5037848;28;20029;-70
2021/10/10 09:20:32;;;;;;;13.45;10.00;;;13.60;90.30;;;;;;5045109;28;20156;-70
2021/10/10 09:22:59;;;;;;;12.88;9.50;;;13.70;90.30;;;;;;5046062;28;20026;-70
2021/10/10 09:25:25;;;;;;;14.20;10.27;;;13.70;90.60;;;;;;5044849;28;20498;-70
2021/10/10 09:27:50;;;;;;;14.20;9.77;;;13.70;90.20;;;;;;5039654;28;20097;-70
2021/10/10 09:30:20;;;;;;;12.15;8.90;;;13.70;90.40;;;;;;5031900;28;20056;-70
2021/10/10 09:32:46;;;;;;;12.55;9.52;;;13.70;90.60;;;;;;5032170;28;20507;-70
2021/10/10 09:35:28;;;;;;;12.70;9.93;;;13.70;90.80;;;;;;5030702;28;20470;-69
2021/10/10 09:38:11;;;;;;;12.38;9.35;;;13.70;90.80;;;;;;5032171;28;20057;-70
2021/10/10 09:40:46;;;;;;;13.75;9.82;;;13.80;91.20;;;;;;5032050;28;20175;-70
2021/10/10 09:43:12;;;;;;;14.98;10.00;;;13.80;91.00;;;;;;5032229;28;20101;-70
2021/10/10 09:45:41;;;;;;;12.40;9.88;;;13.80;91.80;;;;;;5031795;28;20049;-69
2021/10/10 09:48:07;;;;;;;15.57;10.68;;;13.80;92.10;;;;;;5032191;28;20079;-70
2021/10/10 09:50:36;;;;;;;13.20;10.45;;;13.80;92.00;;;;;;5031562;28;20538;-70
2021/10/10 09:53:09;;;;;;;13.95;10.57;;;13.80;91.90;;;;;;5031875;28;20036;-70
2021/10/10 09:55:54;;;;;;;13.57;9.85;;;13.80;91.90;;;;;;5031847;28;20389;-70
2021/10/10 09:58:38;;;;;;;13.70;9.98;;;13.90;92.10;;;;;;5031539;28;20020;-70
2021/10/10 10:01:17;;;;;;;12.35;9.18;;;13.80;92.40;;;;;;5030435;28;20025;-70
2021/10/10 10:04:03;;;;;;;13.35;10.02;;;13.80;91.40;;;;;;5031703;28;20464;-69
2021/10/10 10:06:33;;;;;;;12.52;9.18;;;13.90;92.00;;;;;;5031635;28;20022;-70
2021/10/10 10:09:04;;;;;;;12.43;9.23;;;13.90;92.40;;;;;;5031334;28;20049;-69
2021/10/10 10:11:47;;;;;;;13.23;9.77;;;13.90;91.70;;;;;;5031191;28;20021;-70
2021/10/10 10:14:15;;;;;;;13.57;10.25;;;13.90;92.70;;;;;;5031566;28;20025;-70
2021/10/10 10:16:46;;;;;;;14.15;10.52;;;13.90;92.70;;;;;;5030547;28;20124;-70
2021/10/10 10:19:17;;;;;;;13.23;9.70;;;13.90;91.80;;;;;;5029992;28;20239;-70
2021/10/10 10:21:46;;;;;;;13.77;9.80;;;13.90;92.60;;;;;;5031460;28;20075;-70
2021/10/10 10:24:12;;;;;;;12.23;9.25;;;13.90;92.70;;;;;;5031380;28;20044;-70
2021/10/10 10:26:38;;;;;;;13.30;9.80;;;13.90;92.50;;;;;;5030136;28;20034;-70
2021/10/10 10:29:14;;;;;;;12.82;9.60;;;13.90;92.40;;;;;;5031199;28;20384;-70
2021/10/10 10:31:43;;;;;;;12.73;9.60;;;13.90;92.20;;;;;;5031445;28;20060;-70
2021/10/10 10:34:30;;;;;;;12.52;9.38;;;13.90;92.70;;;;;;5031255;28;20042;-70
2021/10/10 10:36:57;;;;;;;15.10;9.45;;;13.90;92.50;;;;;;5030232;28;20117;-70
2021/10/10 10:39:40;;;;;;;12.40;9.30;;;13.90;92.20;;;;;;5030991;28;20404;-70
2021/10/10 10:42:26;;;;;;;15.50;9.60;;;13.90;92.50;;;;;;5031340;28;20049;-70
2021/10/10 10:44:53;;;;;;;12.82;9.55;;;13.90;92.50;;;;;;5013022;28;20041;-70
2021/10/10 10:47:21;;;;;;;13.70;9.57;;;13.90;92.80;;;;;;5031375;28;20431;-70
2021/10/10 10:49:56;;;;;;;14.13;9.60;;;13.90;92.40;;;;;;5030959;28;20028;-70
2021/10/10 10:52:33;;;;;;;13.57;9.85;;;13.90;92.20;;;;;;5031291;28;20056;-70
2021/10/10 10:55:19;;;;;;;13.48;9.52;;;13.90;92.30;;;;;;5031200;28;20079;-70
2021/10/10 10:57:53;;;;;;;14.77;9.77;;;13.90;92.40;;;;;;5031236;28;20025;-70
2021/10/10 11:00:25;;;;;;;13.80;9.93;;;13.90;92.80;;;;;;5030848;28;20064;-70
2021/10/10 11:03:21;;;;;;;12.73;9.65;;;14.00;93.00;;;;;;5031034;28;20026;-69
2021/10/10 11:05:52;;;;;;;13.63;10.00;;;14.00;92.60;;;;;;5029830;28;20029;-70
2021/10/10 11:08:17;;;;;;;12.05;9.02;;;13.90;92.70;;;;;;5030921;28;20041;-70
2021/10/10 11:11:01;;;;;;;12.27;9.48;;;14.00;92.60;;;;;;5031012;28;20025;-70
2021/10/10 11:13:55;;;;;;;12.63;9.73;;;14.00;92.50;;;;;;5031079;28;20068;-69
2021/10/10 11:16:26;;;;;;;13.27;9.32;;;14.00;92.70;;;;;;5031127;28;20045;-69
2021/10/10 11:19:07;;;;;;;13.60;9.32;;;14.00;92.80;;;;;;5030792;28;20025;-70
2021/10/10 11:21:53;;;;;;;12.35;9.25;;;14.00;92.70;;;;;;5032192;28;20029;-70
2021/10/10 11:24:19;;;;;;;11.95;9.40;;;14.00;92.90;;;;;;5034583;28;20033;-69
2021/10/10 11:26:46;;;;;;;15.27;9.88;;;14.00;93.00;;;;;;5034517;28;20018;-69
2021/10/10 11:29:15;;;;;;;12.43;8.80;;;14.00;92.50;;;;;;5034412;28;20159;-69
2021/10/10 11:31:42;;;;;;;14.23;9.93;;;14.00;91.60;;;;;;5034442;28;20377;-69
2021/10/10 11:34:11;;;;;;;13.05;9.40;;;14.00;90.90;;;;;;5034179;28;20562;-69
2021/10/10 11:36:41;;;;;;;13.90;10.07;;;14.00;91.50;;;;;;5034367;28;20029;-70
2021/10/10 11:39:28;;;;;;;21.23;10.02;;;14.00;90.60;;;;;;5033112;28;20396;-70
2021/10/10 11:41:59;;;;;;;17.65;9.98;;;14.00;90.10;;;;;;5034188;28;20064;-70
2021/10/10 11:44:33;;;;;;;12.95;9.82;;;14.00;90.80;;;;;;5032816;28;20458;-70
2021/10/10 11:47:01;;;;;;;14.90;9.65;;;14.00;90.70;;;;;;5034219;28;20087;-70
2021/10/10 11:49:32;;;;;;;15.55;9.90;;;14.00;89.70;;;;;;5033924;28;20116;-69
2021/10/10 11:52:29;;;;;;;;;;;14.00;90.10;;;;;;5029037;28;20586;-69
2021/10/10 11:55:11;;;;;;;14.45;9.07;;;14.00;91.00;;;;;;5030706;28;19963;-70
2021/10/10 11:57:36;;;;;;;14.60;9.15;;;14.00;91.10;;;;;;5032667;28;20025;-69
2021/10/10 12:00:09;;;;;;;14.50;8.98;;;14.00;91.40;;;;;;5033684;28;20437;-70
2021/10/10 12:02:37;;;;;;;15.65;10.25;;;14.00;91.10;;;;;;5033443;28;20029;-71
2021/10/10 12:05:11;;;;;;;12.70;9.63;;;14.00;90.60;;;;;;5024713;28;20029;-71
2021/10/10 12:07:38;;;;;;;13.43;9.25;;;14.00;91.20;;;;;;5027903;28;20133;-70
2021/10/10 12:10:06;;;;;;;13.18;9.60;;;14.00;92.00;;;;;;5033477;28;20022;-71
2021/10/10 12:12:32;;;;;;;13.15;8.95;;;14.00;91.50;;;;;;5027282;28;20048;-71
2021/10/10 12:14:58;;;;;;;13.32;9.43;;;14.00;91.50;;;;;;5032934;28;20508;-71
2021/10/10 12:17:47;;;;;;;13.77;9.15;;;14.10;91.70;;;;;;5032656;28;20083;-70
2021/10/10 12:20:18;;;;;;;13.98;9.82;;;14.10;92.00;;;;;;5032060;28;20038;-70
2021/10/10 12:22:47;;;;;;;14.52;9.30;;;14.10;92.20;;;;;;5052828;28;20022;-69
2021/10/10 12:25:32;;;;;;;17.55;9.38;;;14.10;92.50;;;;;;5034385;28;20083;-70
2021/10/10 12:27:57;;;;;;;15.55;9.70;;;14.10;91.60;;;;;;5032134;28;20121;-71
2021/10/10 12:30:32;;;;;;;15.65;8.82;;;14.10;91.20;;;;;;5029411;28;20061;-70
2021/10/10 12:32:59;;;;;;;15.73;9.13;;;14.10;91.60;;;;;;5017824;28;20456;-70
2021/10/10 12:35:25;;;;;;;15.10;9.20;;;14.10;92.40;;;;;;5013703;28;20543;-70
2021/10/10 12:37:54;;;;;;;14.50;9.23;;;14.10;91.60;;;;;;5013002;28;20053;-70
2021/10/10 12:40:28;;;;;;;15.98;8.93;;;14.10;91.70;;;;;;5015820;28;20524;-71
2021/10/10 12:42:55;;;;;;;16.10;9.00;;;14.10;91.70;;;;;;5024173;28;20026;-71
2021/10/10 12:45:31;;;;;;;13.68;9.30;;;14.10;91.60;;;;;;5029190;28;20029;-70
2021/10/10 12:48:12;;;;;;;14.07;8.82;;;14.10;91.50;;;;;;5032937;28;20017;-70
2021/10/10 12:50:52;;;;;;;87.18;14.40;;;14.10;91.30;;;;;;5051526;28;20044;-71